sensor_id;sensor_type;location;lat;lon;timestamp;temperature;humidity
23669;DHT22;12011;47.422;15.018;2023-09-19T00:01:41;15.80;99.90
23669;DHT22;12011;47.422;15.018;2023-09-19T00:04:10;15.80;99.90
23669;DHT22;12011;47.422;15.018;2023-09-19T00:06:40;15.80;99.90
23669;DHT22;12011;47.422;15.018;2023-09-19T00:09:11;15.90;99.90
23669;DHT22;12011;47.422;15.018;2023-09-19T00:11:43;15.90;99.90
23669;DHT22;12011;47.422;15.018;2023-09-19T00:14:13;15.80;99.90
23669;DHT22;12011;47.422;15.018;2023-09-19T00:16:44;15.80;99.90
23669;DHT22;12011;47.422;15.018;2023-09-19T00:19:15;15.80;99.90
23669;DHT22;12011;47.422;15.018;2023-09-19T00:21:45;15.80;99.90
23669;DHT22;12011;47.422;15.018;2023-09-19T00:24:15;15.70;99.90
23669;DHT22;12011;47.422;15.018;2023-09-19T00:26:47;15.70;99.90
23669;DHT22;12011;47.422;15.018;2023-09-19T00:29:17;15.60;99.90
23669;DHT22;12011;47.422;15.018;2023-09-19T00:31:46;15.60;99.90
23669;DHT22;12011;47.422;15.018;2023-09-19T00:34:16;15.60;99.90
23669;DHT22;12011;47.422;15.018;2023-09-19T00:36:46;15.60;99.90
23669;DHT22;12011;47.422;15.018;2023-09-19T00:39:16;15.60;99.90
23669;DHT22;12011;47.422;15.018;2023-09-19T00:41:49;15.50;99.90
23669;DHT22;12011;47.422;15.018;2023-09-19T00:44:19;15.50;99.90
23669;DHT22;12011;47.422;15.018;2023-09-19T00:46:50;15.50;99.90
23669;DHT22;12011;47.422;15.018;2023-09-19T00:49:22;15.50;99.90
23669;DHT22;12011;47.422;15.018;2023-09-19T00:51:51;15.40;99.90
23669;DHT22;12011;47.422;15.018;2023-09-19T00:54:21;15.40;99.90
23669;DHT22;12011;47.422;15.018;2023-09-19T00:56:54;15.40;99.90
23669;DHT22;12011;47.422;15.018;2023-09-19T00:59:24;15.30;99.90
23669;DHT22;12011;47.422;15.018;2023-09-19T01:01:59;15.30;99.90
23669;DHT22;12011;47.422;15.018;2023-09-19T01:04:32;15.30;99.90
23669;DHT22;12011;47.422;15.018;2023-09-19T01:07:02;15.30;99.90
23669;DHT22;12011;47.422;15.018;2023-09-19T01:09:34;15.30;99.90
23669;DHT22;12011;47.422;15.018;2023-09-19T01:12:08;15.20;99.90
23669;DHT22;12011;47.422;15.018;2023-09-19T01:14:49;15.20;99.90
23669;DHT22;12011;47.422;15.018;2023-09-19T01:17:31;15.20;99.90
23669;DHT22;12011;47.422;15.018;2023-09-19T01:20:15;15.20;99.90
23669;DHT22;12011;47.422;15.018;2023-09-19T01:23:00;15.20;99.90
23669;DHT22;12011;47.422;15.018;2023-09-19T01:26:04;15.20;99.90
23669;DHT22;12011;47.422;15.018;2023-09-19T01:28:53;15.20;99.90
23669;DHT22;12011;47.422;15.018;2023-09-19T01:31:31;15.30;99.90
23669;DHT22;12011;47.422;15.018;2023-09-19T01:34:03;15.30;99.90
23669;DHT22;12011;47.422;15.018;2023-09-19T01:36:36;15.30;99.90
23669;DHT22;12011;47.422;15.018;2023-09-19T01:39:11;15.30;99.90
23669;DHT22;12011;47.422;15.018;2023-09-19T01:41:58;15.30;99.90
23669;DHT22;12011;47.422;15.018;2023-09-19T01:44:44;15.20;99.90
23669;DHT22;12011;47.422;15.018;2023-09-19T01:47:32;15.20;99.90
23669;DHT22;12011;47.422;15.018;2023-09-19T01:50:13;15.20;99.90
23669;DHT22;12011;47.422;15.018;2023-09-19T01:52:54;15.20;99.90
23669;DHT22;12011;47.422;15.018;2023-09-19T01:55:29;15.20;99.90
23669;DHT22;12011;47.422;15.018;2023-09-19T01:58:07;15.30;99.90
23669;DHT22;12011;47.422;15.018;2023-09-19T02:00:41;15.30;99.90
23669;DHT22;12011;47.422;15.018;2023-09-19T02:03:15;15.30;99.90
23669;DHT22;12011;47.422;15.018;2023-09-19T02:05:49;15.20;99.90
23669;DHT22;12011;47.422;15.018;2023-09-19T02:08:21;15.20;99.90
23669;DHT22;12011;47.422;15.018;2023-09-19T02:10:53;15.20;99.90
23669;DHT22;12011;47.422;15.018;2023-09-19T02:13:24;15.20;99.90
23669;DHT22;12011;47.422;15.018;2023-09-19T02:15:54;15.20;99.90
23669;DHT22;12011;47.422;15.018;2023-09-19T02:18:26;15.20;99.90
23669;DHT22;12011;47.422;15.018;2023-09-19T02:20:57;15.20;99.90
23669;DHT22;12011;47.422;15.018;2023-09-19T02:23:27;15.20;99.90
23669;DHT22;12011;47.422;15.018;2023-09-19T02:25:57;15.10;99.90
23669;DHT22;12011;47.422;15.018;2023-09-19T02:28:27;15.10;99.90
23669;DHT22;12011;47.422;15.018;2023-09-19T02:30:58;15.10;99.90
23669;DHT22;12011;47.422;15.018;2023-09-19T02:33:31;15.10;99.90
23669;DHT22;12011;47.422;15.018;2023-09-19T02:36:03;15.00;99.90
23669;DHT22;12011;47.422;15.018;2023-09-19T02:38:35;15.00;99.90
23669;DHT22;12011;47.422;15.018;2023-09-19T02:41:04;14.90;99.90
23669;DHT22;12011;47.422;15.018;2023-09-19T02:43:34;14.90;99.90
23669;DHT22;12011;47.422;15.018;2023-09-19T02:46:04;14.90;99.90
23669;DHT22;12011;47.422;15.018;2023-09-19T02:48:36;14.90;99.90
23669;DHT22;12011;47.422;15.018;2023-09-19T02:51:06;14.90;99.90
23669;DHT22;12011;47.422;15.018;2023-09-19T02:53:36;14.90;99.90
23669;DHT22;12011;47.422;15.018;2023-09-19T02:56:06;14.90;99.90
23669;DHT22;12011;47.422;15.018;2023-09-19T02:58:36;15.00;99.90
23669;DHT22;12011;47.422;15.018;2023-09-19T03:01:10;14.90;99.90
23669;DHT22;12011;47.422;15.018;2023-09-19T03:03:44;14.90;99.90
23669;DHT22;12011;47.422;15.018;2023-09-19T03:06:14;14.90;99.90
23669;DHT22;12011;47.422;15.018;2023-09-19T03:08:46;14.90;99.90
23669;DHT22;12011;47.422;15.018;2023-09-19T03:11:18;14.80;99.90
23669;DHT22;12011;47.422;15.018;2023-09-19T03:13:53;14.70;99.90
23669;DHT22;12011;47.422;15.018;2023-09-19T03:16:23;14.80;99.90
23669;DHT22;12011;47.422;15.018;2023-09-19T03:18:59;14.80;99.90
23669;DHT22;12011;47.422;15.018;2023-09-19T03:21:31;14.80;99.90
23669;DHT22;12011;47.422;15.018;2023-09-19T03:24:03;14.80;99.90
23669;DHT22;12011;47.422;15.018;2023-09-19T03:26:33;14.80;99.90
23669;DHT22;12011;47.422;15.018;2023-09-19T03:29:07;14.70;99.90
23669;DHT22;12011;47.422;15.018;2023-09-19T03:31:38;14.70;99.90
23669;DHT22;12011;47.422;15.018;2023-09-19T03:34:11;14.70;99.90
23669;DHT22;12011;47.422;15.018;2023-09-19T03:36:42;14.70;99.90
23669;DHT22;12011;47.422;15.018;2023-09-19T03:39:11;14.60;99.90
23669;DHT22;12011;47.422;15.018;2023-09-19T03:41:42;14.60;99.90
23669;DHT22;12011;47.422;15.018;2023-09-19T03:44:12;14.50;99.90
23669;DHT22;12011;47.422;15.018;2023-09-19T03:46:42;14.40;99.90
23669;DHT22;12011;47.422;15.018;2023-09-19T03:49:14;14.40;99.90
23669;DHT22;12011;47.422;15.018;2023-09-19T03:51:45;14.40;99.90
23669;DHT22;12011;47.422;15.018;2023-09-19T03:54:15;14.30;99.90
23669;DHT22;12011;47.422;15.018;2023-09-19T03:56:46;14.30;99.90
23669;DHT22;12011;47.422;15.018;2023-09-19T03:59:16;14.20;99.90
23669;DHT22;12011;47.422;15.018;2023-09-19T04:01:46;14.20;99.90
23669;DHT22;12011;47.422;15.018;2023-09-19T04:04:19;14.20;99.90
23669;DHT22;12011;47.422;15.018;2023-09-19T04:06:51;14.10;99.90
23669;DHT22;12011;47.422;15.018;2023-09-19T04:09:20;14.00;99.90
23669;DHT22;12011;47.422;15.018;2023-09-19T04:11:50;14.00;99.90
23669;DHT22;12011;47.422;15.018;2023-09-19T04:14:19;14.10;99.90
23669;DHT22;12011;47.422;15.018;2023-09-19T04:16:49;14.00;99.90
23669;DHT22;12011;47.422;15.018;2023-09-19T04:19:22;14.00;99.90
23669;DHT22;12011;47.422;15.018;2023-09-19T04:21:54;14.00;99.90
23669;DHT22;12011;47.422;15.018;2023-09-19T04:24:23;13.90;99.90
23669;DHT22;12011;47.422;15.018;2023-09-19T04:26:53;14.00;99.90
23669;DHT22;12011;47.422;15.018;2023-09-19T04:29:23;14.00;99.90
23669;DHT22;12011;47.422;15.018;2023-09-19T04:31:55;13.90;99.90
23669;DHT22;12011;47.422;15.018;2023-09-19T04:34:28;13.80;99.90
23669;DHT22;12011;47.422;15.018;2023-09-19T04:37:00;13.80;99.90
23669;DHT22;12011;47.422;15.018;2023-09-19T04:39:31;13.80;99.90
23669;DHT22;12011;47.422;15.018;2023-09-19T04:42:00;13.70;99.90
23669;DHT22;12011;47.422;15.018;2023-09-19T04:44:30;13.70;99.90
23669;DHT22;12011;47.422;15.018;2023-09-19T04:46:59;13.70;99.90
23669;DHT22;12011;47.422;15.018;2023-09-19T04:49:32;13.70;99.90
23669;DHT22;12011;47.422;15.018;2023-09-19T04:52:04;13.70;99.90
23669;DHT22;12011;47.422;15.018;2023-09-19T04:54:35;13.70;99.90
23669;DHT22;12011;47.422;15.018;2023-09-19T04:57:07;13.60;99.90
23669;DHT22;12011;47.422;15.018;2023-09-19T04:59:38;13.60;99.90
23669;DHT22;12011;47.422;15.018;2023-09-19T05:02:09;13.60;99.90
23669;DHT22;12011;47.422;15.018;2023-09-19T05:05:01;13.60;99.90
23669;DHT22;12011;47.422;15.018;2023-09-19T05:07:46;13.60;99.90
23669;DHT22;12011;47.422;15.018;2023-09-19T05:10:24;13.60;99.90
23669;DHT22;12011;47.422;15.018;2023-09-19T05:13:21;13.60;99.90
23669;DHT22;12011;47.422;15.018;2023-09-19T05:16:15;13.60;99.90
23669;DHT22;12011;47.422;15.018;2023-09-19T05:18:58;13.60;99.90
23669;DHT22;12011;47.422;15.018;2023-09-19T05:21:55;13.60;99.90
23669;DHT22;12011;47.422;15.018;2023-09-19T05:25:38;13.70;99.90
23669;DHT22;12011;47.422;15.018;2023-09-19T05:28:43;13.60;99.90
23669;DHT22;12011;47.422;15.018;2023-09-19T05:31:37;13.60;99.90
23669;DHT22;12011;47.422;15.018;2023-09-19T05:34:30;13.60;99.90
23669;DHT22;12011;47.422;15.018;2023-09-19T05:37:22;13.60;99.90
23669;DHT22;12011;47.422;15.018;2023-09-19T05:40:24;13.60;99.90
23669;DHT22;12011;47.422;15.018;2023-09-19T05:43:23;13.70;99.90
23669;DHT22;12011;47.422;15.018;2023-09-19T05:46:25;13.70;99.90
23669;DHT22;12011;47.422;15.018;2023-09-19T05:49:44;13.80;99.90
23669;DHT22;12011;47.422;15.018;2023-09-19T05:52:37;13.90;99.90
23669;DHT22;12011;47.422;15.018;2023-09-19T06:00:14;14.10;99.90
23669;DHT22;12011;47.422;15.018;2023-09-19T06:03:19;14.30;99.90
23669;DHT22;12011;47.422;15.018;2023-09-19T06:07:10;14.30;99.90
23669;DHT22;12011;47.422;15.018;2023-09-19T06:10:10;14.50;99.90
23669;DHT22;12011;47.422;15.018;2023-09-19T06:16:29;14.70;99.90
23669;DHT22;12011;47.422;15.018;2023-09-19T06:23:20;14.90;99.90
23669;DHT22;12011;47.422;15.018;2023-09-19T06:30:11;15.00;99.90
23669;DHT22;12011;47.422;15.018;2023-09-19T06:34:05;14.80;99.90
23669;DHT22;12011;47.422;15.018;2023-09-19T06:37:35;14.90;99.90
23669;DHT22;12011;47.422;15.018;2023-09-19T06:40:46;14.90;99.90
23669;DHT22;12011;47.422;15.018;2023-09-19T06:48:05;15.00;99.90
23669;DHT22;12011;47.422;15.018;2023-09-19T06:52:05;15.20;99.90
23669;DHT22;12011;47.422;15.018;2023-09-19T07:02:08;15.40;99.90
23669;DHT22;12011;47.422;15.018;2023-09-19T07:05:51;15.50;99.90
23669;DHT22;12011;47.422;15.018;2023-09-19T07:09:27;15.70;99.90
23669;DHT22;12011;47.422;15.018;2023-09-19T07:12:58;15.90;99.90
23669;DHT22;12011;47.422;15.018;2023-09-19T07:16:34;16.40;99.90
23669;DHT22;12011;47.422;15.018;2023-09-19T07:20:40;17.60;99.90
23669;DHT22;12011;47.422;15.018;2023-09-19T07:24:36;17.60;99.90
23669;DHT22;12011;47.422;15.018;2023-09-19T07:28:22;17.40;99.90
23669;DHT22;12011;47.422;15.018;2023-09-19T07:39:21;17.20;99.90
23669;DHT22;12011;47.422;15.018;2023-09-19T07:43:04;17.20;99.90
23669;DHT22;12011;47.422;15.018;2023-09-19T07:47:05;17.50;99.90
23669;DHT22;12011;47.422;15.018;2023-09-19T07:57:42;19.30;99.90
23669;DHT22;12011;47.422;15.018;2023-09-19T08:05:00;21.40;99.90
23669;DHT22;12011;47.422;15.018;2023-09-19T08:08:56;20.80;99.90
23669;DHT22;12011;47.422;15.018;2023-09-19T08:20:36;21.40;99.90
23669;DHT22;12011;47.422;15.018;2023-09-19T08:24:24;20.50;97.80
23669;DHT22;12011;47.422;15.018;2023-09-19T08:27:27;21.50;93.00
23669;DHT22;12011;47.422;15.018;2023-09-19T08:30:43;21.20;91.70
23669;DHT22;12011;47.422;15.018;2023-09-19T08:34:12;21.30;98.30
23669;DHT22;12011;47.422;15.018;2023-09-19T08:44:35;20.80;98.10
23669;DHT22;12011;47.422;15.018;2023-09-19T08:48:03;20.50;99.90
23669;DHT22;12011;47.422;15.018;2023-09-19T08:51:33;21.00;99.90
23669;DHT22;12011;47.422;15.018;2023-09-19T08:55:07;22.00;99.90
23669;DHT22;12011;47.422;15.018;2023-09-19T09:02:36;22.30;91.60
23669;DHT22;12011;47.422;15.018;2023-09-19T09:06:15;22.80;86.80
23669;DHT22;12011;47.422;15.018;2023-09-19T09:09:34;23.60;90.50
23669;DHT22;12011;47.422;15.018;2023-09-19T09:12:16;23.40;78.50
23669;DHT22;12011;47.422;15.018;2023-09-19T09:14:52;23.20;81.60
23669;DHT22;12011;47.422;15.018;2023-09-19T09:17:30;22.60;81.70
23669;DHT22;12011;47.422;15.018;2023-09-19T09:20:12;22.30;84.70
23669;DHT22;12011;47.422;15.018;2023-09-19T09:22:57;22.40;84.80
23669;DHT22;12011;47.422;15.018;2023-09-19T09:25:53;22.30;91.50
23669;DHT22;12011;47.422;15.018;2023-09-19T09:28:34;22.00;90.30
23669;DHT22;12011;47.422;15.018;2023-09-19T09:31:23;22.10;95.10
23669;DHT22;12011;47.422;15.018;2023-09-19T09:34:23;21.90;98.70
23669;DHT22;12011;47.422;15.018;2023-09-19T09:37:45;22.80;96.30
23669;DHT22;12011;47.422;15.018;2023-09-19T09:40:48;23.40;69.30
23669;DHT22;12011;47.422;15.018;2023-09-19T09:43:53;23.40;73.90
23669;DHT22;12011;47.422;15.018;2023-09-19T09:46:34;23.50;84.20
23669;DHT22;12011;47.422;15.018;2023-09-19T09:49:56;23.00;76.00
23669;DHT22;12011;47.422;15.018;2023-09-19T09:53:02;22.70;81.90
23669;DHT22;12011;47.422;15.018;2023-09-19T09:56:51;22.70;85.90
23669;DHT22;12011;47.422;15.018;2023-09-19T09:59:55;23.10;90.60
23669;DHT22;12011;47.422;15.018;2023-09-19T10:03:09;22.80;90.20
23669;DHT22;12011;47.422;15.018;2023-09-19T10:06:10;22.90;86.60
23669;DHT22;12011;47.422;15.018;2023-09-19T10:09:23;22.70;77.50
23669;DHT22;12011;47.422;15.018;2023-09-19T10:12:35;22.80;70.30
23669;DHT22;12011;47.422;15.018;2023-09-19T10:15:33;23.30;85.00
23669;DHT22;12011;47.422;15.018;2023-09-19T10:18:14;22.90;86.10
23669;DHT22;12011;47.422;15.018;2023-09-19T10:20:49;23.20;91.70
23669;DHT22;12011;47.422;15.018;2023-09-19T10:23:28;23.00;85.30
23669;DHT22;12011;47.422;15.018;2023-09-19T10:26:22;23.10;83.70
23669;DHT22;12011;47.422;15.018;2023-09-19T10:29:44;23.20;91.50
23669;DHT22;12011;47.422;15.018;2023-09-19T10:33:03;23.30;70.80
23669;DHT22;12011;47.422;15.018;2023-09-19T10:35:40;23.30;71.10
23669;DHT22;12011;47.422;15.018;2023-09-19T10:38:18;23.50;62.40
23669;DHT22;12011;47.422;15.018;2023-09-19T10:40:50;23.30;74.80
23669;DHT22;12011;47.422;15.018;2023-09-19T10:43:25;23.30;75.10
23669;DHT22;12011;47.422;15.018;2023-09-19T10:46:07;23.00;77.80
23669;DHT22;12011;47.422;15.018;2023-09-19T10:48:40;23.00;78.60
23669;DHT22;12011;47.422;15.018;2023-09-19T10:51:20;23.10;83.10
23669;DHT22;12011;47.422;15.018;2023-09-19T10:54:08;23.80;85.60
23669;DHT22;12011;47.422;15.018;2023-09-19T10:56:51;25.80;55.60
23669;DHT22;12011;47.422;15.018;2023-09-19T10:59:30;27.10;57.90
23669;DHT22;12011;47.422;15.018;2023-09-19T11:02:27;28.00;56.00
23669;DHT22;12011;47.422;15.018;2023-09-19T11:05:12;29.50;54.10
23669;DHT22;12011;47.422;15.018;2023-09-19T11:08:06;31.00;45.10
23669;DHT22;12011;47.422;15.018;2023-09-19T11:10:50;31.00;45.40
23669;DHT22;12011;47.422;15.018;2023-09-19T11:13:34;31.90;43.60
23669;DHT22;12011;47.422;15.018;2023-09-19T11:16:35;30.60;40.90
23669;DHT22;12011;47.422;15.018;2023-09-19T11:23:21;27.80;45.30
23669;DHT22;12011;47.422;15.018;2023-09-19T11:25:58;25.90;50.50
23669;DHT22;12011;47.422;15.018;2023-09-19T11:28:34;25.10;51.30
23669;DHT22;12011;47.422;15.018;2023-09-19T11:34:54;23.40;62.30
23669;DHT22;12011;47.422;15.018;2023-09-19T11:38:12;23.30;65.40
23669;DHT22;12011;47.422;15.018;2023-09-19T11:41:45;23.60;65.00
23669;DHT22;12011;47.422;15.018;2023-09-19T11:44:34;23.50;58.60
23669;DHT22;12011;47.422;15.018;2023-09-19T11:47:19;23.30;62.30
23669;DHT22;12011;47.422;15.018;2023-09-19T11:50:06;23.00;65.10
23669;DHT22;12011;47.422;15.018;2023-09-19T11:53:30;23.00;62.50
23669;DHT22;12011;47.422;15.018;2023-09-19T12:00:29;24.00;89.50
23669;DHT22;12011;47.422;15.018;2023-09-19T12:03:31;25.20;64.20
23669;DHT22;12011;47.422;15.018;2023-09-19T12:06:15;25.00;58.90
23669;DHT22;12011;47.422;15.018;2023-09-19T12:09:01;24.80;56.60
23669;DHT22;12011;47.422;15.018;2023-09-19T12:11:52;24.70;65.60
23669;DHT22;12011;47.422;15.018;2023-09-19T12:14:57;24.30;62.10
23669;DHT22;12011;47.422;15.018;2023-09-19T12:18:37;24.10;68.40
23669;DHT22;12011;47.422;15.018;2023-09-19T12:21:36;23.70;64.30
23669;DHT22;12011;47.422;15.018;2023-09-19T12:25:02;23.60;65.90
23669;DHT22;12011;47.422;15.018;2023-09-19T12:28:01;23.50;75.10
23669;DHT22;12011;47.422;15.018;2023-09-19T12:31:19;23.50;64.80
23669;DHT22;12011;47.422;15.018;2023-09-19T12:34:26;23.50;69.20
23669;DHT22;12011;47.422;15.018;2023-09-19T12:37:38;23.40;63.70
23669;DHT22;12011;47.422;15.018;2023-09-19T12:40:54;23.40;70.50
23669;DHT22;12011;47.422;15.018;2023-09-19T12:44:05;23.40;74.10
23669;DHT22;12011;47.422;15.018;2023-09-19T12:47:49;23.70;66.90
23669;DHT22;12011;47.422;15.018;2023-09-19T12:51:16;23.60;82.30
23669;DHT22;12011;47.422;15.018;2023-09-19T12:54:18;23.50;79.20
23669;DHT22;12011;47.422;15.018;2023-09-19T12:57:26;23.40;62.50
23669;DHT22;12011;47.422;15.018;2023-09-19T13:00:55;23.20;73.90
23669;DHT22;12011;47.422;15.018;2023-09-19T13:08:04;25.00;77.30
23669;DHT22;12011;47.422;15.018;2023-09-19T13:11:06;24.90;65.20
23669;DHT22;12011;47.422;15.018;2023-09-19T13:13:43;24.60;69.50
23669;DHT22;12011;47.422;15.018;2023-09-19T13:16:16;25.00;67.60
23669;DHT22;12011;47.422;15.018;2023-09-19T13:18:51;25.10;58.60
23669;DHT22;12011;47.422;15.018;2023-09-19T13:21:31;25.00;68.70
23669;DHT22;12011;47.422;15.018;2023-09-19T13:24:23;24.60;61.50
23669;DHT22;12011;47.422;15.018;2023-09-19T13:26:54;24.30;68.80
23669;DHT22;12011;47.422;15.018;2023-09-19T13:29:34;24.10;61.20
23669;DHT22;12011;47.422;15.018;2023-09-19T13:32:05;23.90;64.40
23669;DHT22;12011;47.422;15.018;2023-09-19T13:34:40;23.40;53.00
23669;DHT22;12011;47.422;15.018;2023-09-19T13:37:11;23.10;60.50
23669;DHT22;12011;47.422;15.018;2023-09-19T13:39:48;23.80;60.80
23669;DHT22;12011;47.422;15.018;2023-09-19T13:42:20;24.30;75.70
23669;DHT22;12011;47.422;15.018;2023-09-19T13:44:51;24.30;60.90
23669;DHT22;12011;47.422;15.018;2023-09-19T13:47:22;24.10;56.70
23669;DHT22;12011;47.422;15.018;2023-09-19T13:49:53;23.70;65.20
23669;DHT22;12011;47.422;15.018;2023-09-19T13:52:24;23.70;64.20
23669;DHT22;12011;47.422;15.018;2023-09-19T13:55:01;24.00;62.70
23669;DHT22;12011;47.422;15.018;2023-09-19T13:57:34;24.30;62.50
23669;DHT22;12011;47.422;15.018;2023-09-19T14:00:09;24.30;57.80
23669;DHT22;12011;47.422;15.018;2023-09-19T14:02:49;24.70;58.60
23669;DHT22;12011;47.422;15.018;2023-09-19T14:05:25;24.70;61.50
23669;DHT22;12011;47.422;15.018;2023-09-19T14:08:00;24.40;55.30
23669;DHT22;12011;47.422;15.018;2023-09-19T14:10:45;24.10;51.80
23669;DHT22;12011;47.422;15.018;2023-09-19T14:13:24;24.10;55.60
23669;DHT22;12011;47.422;15.018;2023-09-19T14:16:04;24.20;54.80
23669;DHT22;12011;47.422;15.018;2023-09-19T14:18:42;24.00;54.40
23669;DHT22;12011;47.422;15.018;2023-09-19T14:21:32;23.80;56.50
23669;DHT22;12011;47.422;15.018;2023-09-19T14:24:21;23.80;51.90
23669;DHT22;12011;47.422;15.018;2023-09-19T14:27:37;23.80;64.10
23669;DHT22;12011;47.422;15.018;2023-09-19T14:30:20;23.60;59.80
23669;DHT22;12011;47.422;15.018;2023-09-19T14:33:10;23.60;67.20
23669;DHT22;12011;47.422;15.018;2023-09-19T14:36:15;23.60;55.10
23669;DHT22;12011;47.422;15.018;2023-09-19T14:38:52;23.30;53.20
23669;DHT22;12011;47.422;15.018;2023-09-19T14:41:32;23.40;59.30
23669;DHT22;12011;47.422;15.018;2023-09-19T14:44:12;23.20;51.10
23669;DHT22;12011;47.422;15.018;2023-09-19T14:47:01;23.10;51.60
23669;DHT22;12011;47.422;15.018;2023-09-19T14:50:04;23.10;52.80
23669;DHT22;12011;47.422;15.018;2023-09-19T14:53:36;23.20;71.10
23669;DHT22;12011;47.422;15.018;2023-09-19T14:56:37;23.10;62.70
23669;DHT22;12011;47.422;15.018;2023-09-19T14:59:34;22.90;64.00
23669;DHT22;12011;47.422;15.018;2023-09-19T15:02:07;22.50;65.60
23669;DHT22;12011;47.422;15.018;2023-09-19T15:05:04;22.10;62.70
23669;DHT22;12011;47.422;15.018;2023-09-19T15:07:45;22.10;76.40
23669;DHT22;12011;47.422;15.018;2023-09-19T15:11:27;22.20;66.80
23669;DHT22;12011;47.422;15.018;2023-09-19T15:14:36;22.30;63.80
23669;DHT22;12011;47.422;15.018;2023-09-19T15:18:06;22.00;66.50
23669;DHT22;12011;47.422;15.018;2023-09-19T15:21:21;21.90;75.90
23669;DHT22;12011;47.422;15.018;2023-09-19T15:24:23;21.70;69.10
23669;DHT22;12011;47.422;15.018;2023-09-19T15:27:32;21.60;73.90
23669;DHT22;12011;47.422;15.018;2023-09-19T15:30:15;21.20;90.40
23669;DHT22;12011;47.422;15.018;2023-09-19T15:32:47;21.00;89.00
23669;DHT22;12011;47.422;15.018;2023-09-19T15:35:48;20.80;83.50
23669;DHT22;12011;47.422;15.018;2023-09-19T15:41:34;20.30;81.50
23669;DHT22;12011;47.422;15.018;2023-09-19T15:44:17;20.30;82.90
23669;DHT22;12011;47.422;15.018;2023-09-19T15:47:15;20.20;79.10
23669;DHT22;12011;47.422;15.018;2023-09-19T15:53:18;20.10;76.70
23669;DHT22;12011;47.422;15.018;2023-09-19T15:56:22;20.00;79.60
23669;DHT22;12011;47.422;15.018;2023-09-19T16:03:07;19.90;80.00
23669;DHT22;12011;47.422;15.018;2023-09-19T16:06:44;19.90;86.30
23669;DHT22;12011;47.422;15.018;2023-09-19T16:10:30;19.90;78.90
23669;DHT22;12011;47.422;15.018;2023-09-19T16:17:39;19.60;84.40
23669;DHT22;12011;47.422;15.018;2023-09-19T16:20:23;19.50;91.20
23669;DHT22;12011;47.422;15.018;2023-09-19T16:22:54;19.20;95.10
23669;DHT22;12011;47.422;15.018;2023-09-19T16:25:29;19.20;96.30
23669;DHT22;12011;47.422;15.018;2023-09-19T16:28:06;19.10;95.10
23669;DHT22;12011;47.422;15.018;2023-09-19T16:30:36;19.00;95.50
23669;DHT22;12011;47.422;15.018;2023-09-19T16:33:09;18.90;97.20
23669;DHT22;12011;47.422;15.018;2023-09-19T16:35:40;18.80;99.90
23669;DHT22;12011;47.422;15.018;2023-09-19T16:38:10;18.60;99.20
23669;DHT22;12011;47.422;15.018;2023-09-19T16:40:51;18.60;99.90
23669;DHT22;12011;47.422;15.018;2023-09-19T16:43:22;18.40;99.90
23669;DHT22;12011;47.422;15.018;2023-09-19T16:45:54;18.40;99.90
23669;DHT22;12011;47.422;15.018;2023-09-19T16:48:29;18.20;99.90
23669;DHT22;12011;47.422;15.018;2023-09-19T16:51:02;17.90;99.90
23669;DHT22;12011;47.422;15.018;2023-09-19T16:53:35;17.60;99.90
23669;DHT22;12011;47.422;15.018;2023-09-19T16:56:08;17.50;99.90
23669;DHT22;12011;47.422;15.018;2023-09-19T16:58:42;17.40;99.90
23669;DHT22;12011;47.422;15.018;2023-09-19T17:01:15;17.20;99.90
23669;DHT22;12011;47.422;15.018;2023-09-19T17:03:49;17.20;99.90
23669;DHT22;12011;47.422;15.018;2023-09-19T17:06:23;17.10;99.90
23669;DHT22;12011;47.422;15.018;2023-09-19T17:08:56;17.10;99.90
23669;DHT22;12011;47.422;15.018;2023-09-19T17:11:31;16.90;99.90
23669;DHT22;12011;47.422;15.018;2023-09-19T17:14:03;16.80;99.90
23669;DHT22;12011;47.422;15.018;2023-09-19T17:16:35;16.70;99.90
23669;DHT22;12011;47.422;15.018;2023-09-19T17:19:08;16.40;99.90
23669;DHT22;12011;47.422;15.018;2023-09-19T17:21:38;16.40;99.90
23669;DHT22;12011;47.422;15.018;2023-09-19T17:24:08;16.30;99.90
23669;DHT22;12011;47.422;15.018;2023-09-19T17:26:39;16.10;99.90
23669;DHT22;12011;47.422;15.018;2023-09-19T17:29:09;16.00;99.90
23669;DHT22;12011;47.422;15.018;2023-09-19T17:31:38;15.90;99.90
23669;DHT22;12011;47.422;15.018;2023-09-19T17:34:10;15.70;99.90
23669;DHT22;12011;47.422;15.018;2023-09-19T17:36:41;15.50;99.90
23669;DHT22;12011;47.422;15.018;2023-09-19T17:39:11;15.40;99.90
23669;DHT22;12011;47.422;15.018;2023-09-19T17:41:43;15.20;99.90
23669;DHT22;12011;47.422;15.018;2023-09-19T17:44:13;15.00;99.90
23669;DHT22;12011;47.422;15.018;2023-09-19T17:46:46;15.00;99.90
23669;DHT22;12011;47.422;15.018;2023-09-19T17:49:25;15.10;99.90
23669;DHT22;12011;47.422;15.018;2023-09-19T17:51:57;15.00;99.90
23669;DHT22;12011;47.422;15.018;2023-09-19T17:54:27;14.80;99.90
23669;DHT22;12011;47.422;15.018;2023-09-19T17:56:59;14.40;99.90
23669;DHT22;12011;47.422;15.018;2023-09-19T17:59:31;14.50;99.90
23669;DHT22;12011;47.422;15.018;2023-09-19T18:02:02;14.50;99.90
23669;DHT22;12011;47.422;15.018;2023-09-19T18:04:36;14.60;99.90
23669;DHT22;12011;47.422;15.018;2023-09-19T18:07:11;14.40;99.90
23669;DHT22;12011;47.422;15.018;2023-09-19T18:09:48;14.30;99.90
23669;DHT22;12011;47.422;15.018;2023-09-19T18:12:20;14.30;99.90
23669;DHT22;12011;47.422;15.018;2023-09-19T18:14:53;14.40;99.90
23669;DHT22;12011;47.422;15.018;2023-09-19T18:17:25;14.20;99.90
23669;DHT22;12011;47.422;15.018;2023-09-19T18:20:01;14.10;99.90
23669;DHT22;12011;47.422;15.018;2023-09-19T18:22:32;13.90;99.90
23669;DHT22;12011;47.422;15.018;2023-09-19T18:25:09;13.80;99.90
23669;DHT22;12011;47.422;15.018;2023-09-19T18:27:43;13.80;99.90
23669;DHT22;12011;47.422;15.018;2023-09-19T18:30:24;13.90;99.90
23669;DHT22;12011;47.422;15.018;2023-09-19T18:32:54;13.80;99.90
23669;DHT22;12011;47.422;15.018;2023-09-19T18:35:26;13.80;99.90
23669;DHT22;12011;47.422;15.018;2023-09-19T18:37:57;13.70;99.90
23669;DHT22;12011;47.422;15.018;2023-09-19T18:40:58;13.60;99.90
23669;DHT22;12011;47.422;15.018;2023-09-19T18:43:56;13.50;99.90
23669;DHT22;12011;47.422;15.018;2023-09-19T18:46:32;13.30;99.90
23669;DHT22;12011;47.422;15.018;2023-09-19T18:49:04;13.20;99.90
23669;DHT22;12011;47.422;15.018;2023-09-19T18:51:41;13.20;99.90
23669;DHT22;12011;47.422;15.018;2023-09-19T18:54:11;13.20;99.90
23669;DHT22;12011;47.422;15.018;2023-09-19T18:56:42;13.30;99.90